Time;durP1;ratioP1;P1;durP2;ratioP2;P2;SDS_P1;SDS_P2;PMS_P1;PMS_P2;Temp;Humidity;BMP_temperature;BMP_pressure;BME280_temperature;BME280_humidity;BME280_pressure;Samples;Min_cycle;Max_cycle;Signal;HPM_P1;HPM_P2
2023/07/01 00:01:07;;;;;;;4.20;3.60;;;15.60;99.90;;;;;;5103727;28;20452;-84
2023/07/01 00:03:33;;;;;;;5.75;4.07;;;15.60;99.90;;;;;;5122019;28;20699;-84
2023/07/01 00:05:59;;;;;;;4.27;3.87;;;15.60;99.90;;;;;;5139239;27;20823;-84
2023/07/01 00:08:25;;;;;;;4.30;3.90;;;15.60;99.90;;;;;;5142018;27;20749;-83
2023/07/01 00:10:51;;;;;;;4.30;3.90;;;16.30;99.90;;;;;;5121615;27;20374;-82
2023/07/01 00:13:16;;;;;;;6.38;4.80;;;15.60;99.90;;;;;;5121223;28;20405;-82
2023/07/01 00:15:42;;;;;;;4.90;4.40;;;14.90;99.90;;;;;;5134270;27;20395;-84
2023/07/01 00:18:07;;;;;;;5.67;4.33;;;15.60;99.90;;;;;;5107653;28;20389;-83
2023/07/01 00:20:33;;;;;;;5.32;4.38;;;16.10;99.90;;;;;;5101771;28;20376;-84
2023/07/01 00:22:58;;;;;;;4.30;3.70;;;15.60;99.90;;;;;;5103960;28;20383;-83
2023/07/01 00:25:24;;;;;;;8.00;4.20;;;17.10;99.90;;;;;;5105331;28;20387;-84
2023/07/01 00:27:50;;;;;;;5.35;4.00;;;15.60;99.90;;;;;;5119442;28;20479;-83
2023/07/01 00:30:15;;;;;;;6.47;4.30;;;18.40;99.90;;;;;;5120750;28;20467;-84
2023/07/01 00:32:41;;;;;;;5.43;4.20;;;16.60;99.90;;;;;;5122249;28;20448;-83
2023/07/01 00:35:07;;;;;;;7.40;3.60;;;15.60;99.90;;;;;;5121552;28;20439;-84
2023/07/01 00:37:32;;;;;;;7.32;4.20;;;15.50;99.90;;;;;;5114190;27;20387;-83
2023/07/01 00:39:58;;;;;;;4.25;3.55;;;15.40;99.90;;;;;;5123200;27;20379;-83
2023/07/01 00:42:23;;;;;;;5.73;4.40;;;15.50;99.90;;;;;;5123903;27;20455;-83
2023/07/01 00:44:49;;;;;;;6.70;4.23;;;15.60;99.90;;;;;;5141752;27;20387;-84
2023/07/01 00:47:15;;;;;;;5.68;3.90;;;15.50;99.90;;;;;;5112202;28;20392;-84
2023/07/01 00:49:41;;;;;;;4.50;4.05;;;15.50;99.90;;;;;;5105100;27;20904;-83
2023/07/01 00:52:07;;;;;;;5.07;4.38;;;18.00;99.90;;;;;;5122398;27;20386;-83
2023/07/01 00:54:34;;;;;;;4.60;4.20;;;15.50;99.90;;;;;;5140793;27;20401;-84
2023/07/01 00:57:03;;;;;;;7.50;4.30;;;15.50;99.90;;;;;;5140399;27;20401;-84
2023/07/01 00:59:32;;;;;;;4.35;3.95;;;15.50;99.90;;;;;;5139627;27;20385;-84
2023/07/01 01:02:04;;;;;;;6.57;4.30;;;15.60;99.90;;;;;;5102268;28;20889;-83
2023/07/01 01:04:48;;;;;;;5.63;3.90;;;15.50;99.90;;;;;;5100892;28;20422;-82
2023/07/01 01:07:31;;;;;;;4.40;4.00;;;15.60;99.90;;;;;;5101674;28;20392;-84
2023/07/01 01:10:10;;;;;;;4.80;3.50;;;15.50;99.90;;;;;;5102030;28;20380;-83
2023/07/01 01:12:40;;;;;;;5.60;4.20;;;15.60;99.90;;;;;;5102727;28;20452;-83
2023/07/01 01:15:08;;;;;;;5.00;4.30;;;15.50;99.90;;;;;;5100960;28;20376;-83
2023/07/01 01:17:37;;;;;;;5.90;4.13;;;15.60;99.90;;;;;;5100224;28;20429;-84
2023/07/01 01:20:12;;;;;;;5.03;4.10;;;15.60;99.90;;;;;;5119699;28;20416;-83
2023/07/01 01:22:49;;;;;;;4.60;4.20;;;15.50;99.90;;;;;;5125489;28;20364;-81
2023/07/01 01:25:24;;;;;;;5.95;4.05;;;15.50;99.90;;;;;;5118442;28;20392;-80
2023/07/01 01:27:53;;;;;;;5.20;4.50;;;15.60;99.90;;;;;;5135685;28;20379;-79
2023/07/01 01:30:23;;;;;;;5.82;4.32;;;15.60;99.90;;;;;;5148720;27;20378;-82
2023/07/01 01:32:50;;;;;;;7.32;4.30;;;15.60;99.90;;;;;;5122892;27;20394;-83
2023/07/01 01:35:16;;;;;;;4.28;3.83;;;16.50;99.90;;;;;;5131345;27;20440;-82
2023/07/01 01:38:08;;;;;;;5.85;4.32;;;14.90;99.90;;;;;;5101655;28;20391;-82
2023/07/01 01:41:03;;;;;;;4.55;4.10;;;15.50;99.90;;;;;;5101759;28;20395;-83
2023/07/01 01:43:52;;;;;;;4.30;3.90;;;15.50;99.90;;;;;;5115188;28;20439;-84
2023/07/01 01:46:20;;;;;;;4.57;4.18;;;15.70;99.90;;;;;;5118505;28;20480;-83
2023/07/01 01:48:46;;;;;;;5.70;3.90;;;15.70;99.90;;;;;;5119427;28;20384;-83
2023/07/01 01:51:14;;;;;;;3.70;3.40;;;15.60;99.90;;;;;;5100817;28;20453;-83
2023/07/01 01:53:42;;;;;;;5.60;3.80;;;15.60;99.90;;;;;;5130795;28;20402;-84
2023/07/01 01:56:08;;;;;;;4.90;4.38;;;15.60;99.90;;;;;;5120736;27;20397;-84
2023/07/01 01:58:34;;;;;;;4.63;3.88;;;15.60;99.90;;;;;;5139793;28;20694;-84
2023/07/01 02:01:00;;;;;;;4.72;3.90;;;15.60;99.90;;;;;;5121777;28;20382;-82
2023/07/01 02:03:25;;;;;;;5.60;4.20;;;15.50;99.90;;;;;;5112055;28;20396;-83
2023/07/01 02:05:51;;;;;;;5.50;4.70;;;15.60;99.90;;;;;;5111491;28;20391;-84
2023/07/01 02:08:16;;;;;;;5.65;4.43;;;15.60;99.90;;;;;;5139887;27;20375;-83
2023/07/01 02:10:42;;;;;;;4.67;4.20;;;15.60;99.90;;;;;;5121378;28;20379;-83
2023/07/01 02:13:07;;;;;;;4.83;4.43;;;15.60;99.90;;;;;;5119603;28;20415;-83
2023/07/01 02:15:33;;;;;;;4.63;4.05;;;15.60;99.90;;;;;;5107540;28;20409;-83
2023/07/01 02:17:58;;;;;;;5.30;4.80;;;15.60;99.90;;;;;;5107659;22;20438;-81
2023/07/01 02:20:24;;;;;;;6.03;3.90;;;16.40;99.90;;;;;;5092688;28;20368;-79
2023/07/01 02:22:50;;;;;;;4.60;4.20;;;15.70;99.90;;;;;;5092438;28;20378;-81
2023/07/01 02:25:15;;;;;;;6.03;4.10;;;15.60;99.90;;;;;;5092955;28;20859;-79
2023/07/01 02:27:41;;;;;;;6.93;4.40;;;15.60;99.90;;;;;;5083767;28;20390;-79
2023/07/01 02:30:07;;;;;;;5.05;3.85;;;15.60;99.90;;;;;;5093175;28;20370;-79
2023/07/01 02:32:33;;;;;;;4.75;4.25;;;15.60;99.90;;;;;;5109906;28;20465;-79
2023/07/01 02:34:58;;;;;;;5.00;4.20;;;15.60;99.90;;;;;;5113625;28;20933;-79
2023/07/01 02:37:24;;;;;;;5.60;4.50;;;15.60;99.90;;;;;;5112229;28;20389;-79
2023/07/01 02:39:49;;;;;;;5.30;4.50;;;15.60;99.90;;;;;;5096659;28;20881;-79
2023/07/01 02:42:19;;;;;;;6.00;4.20;;;15.50;99.90;;;;;;5102926;28;20428;-79
2023/07/01 02:44:45;;;;;;;4.72;4.32;;;15.60;99.90;;;;;;5095162;28;20396;-79
2023/07/01 02:47:11;;;;;;;6.63;4.60;;;15.50;99.90;;;;;;5116123;28;20461;-79
2023/07/01 02:49:40;;;;;;;5.00;4.20;;;15.60;99.90;;;;;;5116133;28;20471;-81
2023/07/01 02:52:09;;;;;;;5.30;4.40;;;15.60;99.90;;;;;;5100560;28;20389;-81
2023/07/01 02:54:38;;;;;;;5.77;4.23;;;15.60;99.90;;;;;;5098831;28;20839;-79
2023/07/01 02:57:05;;;;;;;5.80;4.25;;;15.60;99.90;;;;;;5119040;28;20939;-79
2023/07/01 02:59:31;;;;;;;7.15;4.65;;;15.60;99.90;;;;;;5119122;28;20376;-79
2023/07/01 03:01:57;;;;;;;5.57;4.70;;;15.60;99.90;;;;;;5099586;28;20964;-79
2023/07/01 03:04:22;;;;;;;8.30;4.90;;;15.60;99.90;;;;;;5121842;28;20384;-79
2023/07/01 03:06:48;;;;;;;6.67;4.60;;;15.70;99.90;;;;;;5098659;28;20398;-79
2023/07/01 03:09:14;;;;;;;4.93;4.43;;;15.70;99.90;;;;;;5096975;28;20416;-81
2023/07/01 03:11:40;;;;;;;4.50;4.10;;;15.80;99.90;;;;;;5096356;28;20503;-79
2023/07/01 03:14:06;;;;;;;8.73;4.70;;;15.60;99.90;;;;;;5096430;28;20430;-79
2023/07/01 03:16:31;;;;;;;5.40;4.90;;;15.60;99.90;;;;;;5095192;28;20460;-79
2023/07/01 03:18:58;;;;;;;5.70;4.80;;;15.50;99.90;;;;;;5096249;28;20417;-79
2023/07/01 03:21:27;;;;;;;5.80;4.70;;;15.50;99.90;;;;;;5095989;28;20460;-79
2023/07/01 03:23:53;;;;;;;7.50;5.00;;;15.60;99.90;;;;;;5095040;28;20403;-79
2023/07/01 03:26:18;;;;;;;5.13;4.63;;;15.50;99.90;;;;;;5115377;28;20377;-78
2023/07/01 03:28:47;;;;;;;5.57;4.60;;;15.50;99.90;;;;;;5116296;28;20376;-79
2023/07/01 03:31:12;;;;;;;5.72;5.13;;;15.50;99.90;;;;;;5097039;28;20420;-79
2023/07/01 03:33:38;;;;;;;6.38;5.25;;;15.40;99.90;;;;;;5095978;28;20440;-79
2023/07/01 03:36:04;;;;;;;4.93;4.53;;;15.50;99.90;;;;;;5098398;28;20385;-79
2023/07/01 03:38:29;;;;;;;6.50;4.63;;;15.30;99.90;;;;;;5100900;28;20477;-80
2023/07/01 03:40:55;;;;;;;5.63;4.70;;;15.30;99.90;;;;;;5113074;28;20528;-80
2023/07/01 03:43:20;;;;;;;7.30;4.87;;;15.30;99.90;;;;;;5116678;28;20459;-80
2023/07/01 03:45:46;;;;;;;6.50;5.40;;;15.30;99.90;;;;;;5095492;28;21164;-80
2023/07/01 03:48:11;;;;;;;5.65;5.05;;;15.30;99.90;;;;;;5090051;28;20385;-80
2023/07/01 03:50:37;;;;;;;7.13;5.23;;;15.40;99.90;;;;;;5100207;28;20394;-80
2023/07/01 03:53:02;;;;;;;6.00;5.50;;;15.40;99.90;;;;;;5117235;28;20402;-80
2023/07/01 03:55:28;;;;;;;6.45;5.22;;;15.40;99.90;;;;;;5111061;28;20430;-80
2023/07/01 03:57:53;;;;;;;5.93;4.83;;;15.40;99.90;;;;;;5095174;28;20785;-80
2023/07/01 04:00:19;;;;;;;5.60;4.70;;;15.30;99.90;;;;;;5113711;28;20437;-80
2023/07/01 04:02:49;;;;;;;5.60;4.80;;;15.30;99.90;;;;;;5098321;28;20923;-80
2023/07/01 04:05:16;;;;;;;6.95;5.05;;;15.20;99.90;;;;;;5093696;28;20382;-80
2023/07/01 04:07:44;;;;;;;6.65;4.95;;;15.20;99.90;;;;;;5094635;28;20389;-80
2023/07/01 04:10:10;;;;;;;5.70;5.20;;;15.30;99.90;;;;;;5094803;28;20981;-80
2023/07/01 04:12:37;;;;;;;5.30;4.80;;;15.30;99.90;;;;;;5075940;28;20423;-80
2023/07/01 04:15:09;;;;;;;4.73;4.30;;;15.40;99.90;;;;;;5093745;28;20430;-80
2023/07/01 04:17:39;;;;;;;4.85;4.43;;;15.50;99.90;;;;;;5093184;28;20439;-80
2023/07/01 04:20:06;;;;;;;4.72;4.32;;;15.60;99.90;;;;;;5075568;28;20956;-80
2023/07/01 04:22:31;;;;;;;4.95;4.55;;;15.60;99.90;;;;;;5092376;28;20403;-80
2023/07/01 04:24:57;;;;;;;5.07;4.57;;;15.50;99.90;;;;;;5096087;28;20758;-80
2023/07/01 04:27:23;;;;;;;5.60;5.00;;;15.50;99.90;;;;;;5095643;28;20380;-80
2023/07/01 04:29:48;;;;;;;5.50;5.00;;;15.50;99.90;;;;;;5114720;28;20396;-80
2023/07/01 04:32:13;;;;;;;5.60;4.90;;;15.60;99.90;;;;;;5103410;28;20489;-80
2023/07/01 04:34:39;;;;;;;5.90;4.80;;;15.60;99.90;;;;;;5113883;28;20403;-80
2023/07/01 04:37:05;;;;;;;5.53;5.03;;;15.70;99.90;;;;;;5117803;28;20376;-79
2023/07/01 04:39:30;;;;;;;6.57;4.60;;;15.70;99.90;;;;;;5118662;28;20425;-80
2023/07/01 04:41:56;;;;;;;5.60;5.10;;;15.80;99.90;;;;;;5115871;28;20434;-80
2023/07/01 04:44:24;;;;;;;4.60;4.20;;;15.90;99.90;;;;;;5097901;28;20402;-80
2023/07/01 04:46:50;;;;;;;5.90;4.35;;;16.00;99.90;;;;;;5076623;28;20411;-80
2023/07/01 04:49:16;;;;;;;4.75;4.35;;;16.00;99.90;;;;;;5080501;28;20395;-80
2023/07/01 04:51:41;;;;;;;5.50;5.00;;;15.90;99.90;;;;;;5116427;28;20392;-80
2023/07/01 04:54:07;;;;;;;5.55;4.60;;;15.90;99.90;;;;;;5097907;28;20396;-80
2023/07/01 04:56:33;;;;;;;5.07;4.57;;;15.80;99.90;;;;;;5113751;28;20399;-80
2023/07/01 04:58:59;;;;;;;4.67;4.27;;;15.80;99.90;;;;;;5128878;28;20379;-80
2023/07/01 05:01:24;;;;;;;5.10;4.57;;;15.80;99.90;;;;;;5108535;28;20798;-80
2023/07/01 05:03:50;;;;;;;5.20;4.70;;;15.80;99.90;;;;;;5078133;28;20389;-80
2023/07/01 05:06:15;;;;;;;5.03;4.33;;;15.80;99.90;;;;;;5094597;28;20381;-80
2023/07/01 05:08:41;;;;;;;5.45;4.88;;;15.80;99.90;;;;;;5107264;28;20388;-80
2023/07/01 05:11:07;;;;;;;5.23;4.80;;;15.80;99.90;;;;;;5113988;28;20707;-80
2023/07/01 05:13:32;;;;;;;5.27;4.77;;;15.90;99.90;;;;;;5097389;28;21130;-80
2023/07/01 05:15:58;;;;;;;5.60;5.10;;;15.80;99.90;;;;;;5097330;28;20511;-80
2023/07/01 05:18:23;;;;;;;5.47;4.67;;;15.90;99.90;;;;;;5097041;28;20918;-80
2023/07/01 05:20:49;;;;;;;6.67;4.80;;;15.90;99.90;;;;;;5093973;28;20394;-80
2023/07/01 05:23:14;;;;;;;7.18;5.43;;;15.90;99.90;;;;;;5096129;28;20381;-80
2023/07/01 05:25:40;;;;;;;7.40;5.07;;;16.00;99.90;;;;;;5075000;28;20382;-80
2023/07/01 05:28:06;;;;;;;6.70;4.70;;;16.00;99.90;;;;;;5094950;28;20377;-80
2023/07/01 05:30:31;;;;;;;5.18;4.68;;;16.00;99.90;;;;;;5096342;28;20410;-80
2023/07/01 05:32:57;;;;;;;4.60;4.30;;;16.00;99.90;;;;;;5123234;28;20400;-80
2023/07/01 05:35:22;;;;;;;3.83;3.43;;;16.20;99.90;;;;;;5130311;28;20379;-80
2023/07/01 05:37:48;;;;;;;2.87;2.67;;;16.20;99.90;;;;;;5100521;28;20472;-81
2023/07/01 05:40:13;;;;;;;2.17;1.98;;;16.50;99.90;;;;;;5078211;28;20389;-80
2023/07/01 05:42:39;;;;;;;4.47;2.00;;;16.60;99.90;;;;;;5095108;28;20382;-80
2023/07/01 05:45:05;;;;;;;4.30;2.07;;;16.70;99.90;;;;;;5095771;28;20393;-80
2023/07/01 05:47:32;;;;;;;4.10;2.40;;;16.90;99.90;;;;;;5101150;28;20564;-80
2023/07/01 05:49:57;;;;;;;2.50;2.20;;;16.80;99.90;;;;;;5094794;28;20409;-80
2023/07/01 05:52:23;;;;;;;2.25;1.90;;;16.90;99.90;;;;;;5076642;28;20378;-80
2023/07/01 05:54:49;;;;;;;3.00;2.30;;;16.90;99.90;;;;;;5092752;28;20839;-80
2023/07/01 05:57:14;;;;;;;3.10;2.27;;;16.90;99.90;;;;;;5076643;28;20457;-80
2023/07/01 05:59:40;;;;;;;2.50;2.03;;;16.70;99.90;;;;;;5104825;28;20437;-81
2023/07/01 06:02:07;;;;;;;2.50;2.00;;;16.90;99.90;;;;;;5093439;28;20381;-80
2023/07/01 06:04:33;;;;;;;2.05;1.85;;;16.90;99.90;;;;;;5093563;28;20417;-80
2023/07/01 06:06:58;;;;;;;2.92;2.03;;;16.80;99.90;;;;;;5101040;28;20393;-80
2023/07/01 06:09:24;;;;;;;1.93;1.60;;;16.90;99.90;;;;;;5112745;28;20384;-80
2023/07/01 06:11:49;;;;;;;3.50;1.77;;;16.90;99.90;;;;;;5099827;28;20406;-80
2023/07/01 06:14:15;;;;;;;3.30;1.50;;;16.90;99.90;;;;;;5093568;28;20401;-80
2023/07/01 06:16:40;;;;;;;2.37;1.50;;;16.80;99.90;;;;;;5077224;28;20780;-80
2023/07/01 06:19:06;;;;;;;2.30;1.80;;;16.90;99.90;;;;;;5098434;28;20378;-80
2023/07/01 06:21:31;;;;;;;1.63;1.53;;;16.90;99.90;;;;;;5079599;28;20473;-80
2023/07/01 06:23:57;;;;;;;2.20;1.60;;;17.00;99.90;;;;;;5096155;28;20747;-80
2023/07/01 06:26:23;;;;;;;3.88;1.90;;;17.10;99.90;;;;;;5113567;28;20399;-80
2023/07/01 06:28:48;;;;;;;2.63;1.90;;;17.10;99.90;;;;;;5098253;28;20432;-80
2023/07/01 06:31:14;;;;;;;1.93;1.50;;;17.10;99.90;;;;;;5116853;28;20380;-81
2023/07/01 06:33:39;;;;;;;1.98;1.67;;;17.20;99.90;;;;;;5098498;28;20400;-80
2023/07/01 06:36:06;;;;;;;2.97;1.97;;;17.30;99.90;;;;;;5081215;28;20389;-80
2023/07/01 06:38:31;;;;;;;3.28;1.75;;;17.20;99.90;;;;;;5113413;28;20374;-79
2023/07/01 06:40:57;;;;;;;3.08;1.70;;;17.20;99.90;;;;;;5103482;28;20394;-79
2023/07/01 06:43:22;;;;;;;2.90;1.70;;;17.30;99.90;;;;;;5102749;28;20397;-79
2023/07/01 06:45:48;;;;;;;1.85;1.50;;;17.40;99.90;;;;;;5101641;28;20468;-81
2023/07/01 06:48:13;;;;;;;3.10;1.70;;;17.40;99.90;;;;;;5111958;28;20380;-81
2023/07/01 06:50:39;;;;;;;2.00;1.80;;;17.50;99.90;;;;;;5116101;28;20935;-78
2023/07/01 06:53:04;;;;;;;3.50;1.70;;;17.60;99.90;;;;;;5096386;28;20769;-78
2023/07/01 06:55:30;;;;;;;1.97;1.70;;;17.60;99.90;;;;;;5075842;28;20748;-78
2023/07/01 06:57:56;;;;;;;2.13;1.70;;;16.50;99.90;;;;;;5094926;28;20740;-78
2023/07/01 07:00:22;;;;;;;1.95;1.55;;;17.80;99.90;;;;;;5077649;28;20389;-79
2023/07/01 07:02:48;;;;;;;2.33;1.70;;;17.80;99.90;;;;;;5096203;28;20378;-79
2023/07/01 07:05:13;;;;;;;3.20;1.57;;;17.70;99.90;;;;;;5094074;28;20470;-79
2023/07/01 07:07:39;;;;;;;3.13;1.90;;;17.70;99.90;;;;;;5080496;28;20390;-79
2023/07/01 07:10:05;;;;;;;3.33;1.75;;;17.80;99.90;;;;;;5096122;28;20386;-79
2023/07/01 07:12:31;;;;;;;3.10;1.73;;;17.80;99.90;;;;;;5095420;28;20473;-79
2023/07/01 07:14:56;;;;;;;2.60;1.60;;;18.00;99.90;;;;;;5095313;28;20454;-78
2023/07/01 07:17:22;;;;;;;2.30;1.70;;;18.00;99.90;;;;;;5094791;28;20390;-79
2023/07/01 07:19:47;;;;;;;2.30;1.45;;;18.10;99.90;;;;;;5095417;28;20431;-79
2023/07/01 07:22:13;;;;;;;4.60;1.80;;;18.20;99.90;;;;;;5094875;28;20397;-79
2023/07/01 07:24:39;;;;;;;2.42;1.48;;;18.20;99.90;;;;;;5116670;28;20469;-79
2023/07/01 07:27:05;;;;;;;3.55;1.88;;;18.20;99.90;;;;;;5117097;28;20416;-79
2023/07/01 07:29:33;;;;;;;1.70;1.20;;;18.20;99.90;;;;;;5115190;28;20438;-79
2023/07/01 07:31:59;;;;;;;2.78;1.50;;;18.30;99.90;;;;;;5115458;28;20472;-79
2023/07/01 07:34:25;;;;;;;2.35;1.48;;;18.40;99.90;;;;;;5087093;28;20959;-78
2023/07/01 07:36:50;;;;;;;3.20;1.80;;;18.40;99.90;;;;;;5114829;28;20416;-79
2023/07/01 07:39:16;;;;;;;2.13;1.45;;;18.50;99.90;;;;;;5115236;28;20809;-79
2023/07/01 07:41:42;;;;;;;1.87;1.43;;;18.60;99.90;;;;;;5096721;28;20403;-79
2023/07/01 07:44:08;;;;;;;3.30;1.40;;;18.70;99.90;;;;;;5096643;28;20386;-79
2023/07/01 07:46:34;;;;;;;3.50;1.70;;;18.60;99.90;;;;;;5093887;28;20871;-79
2023/07/01 07:49:00;;;;;;;2.25;1.70;;;18.80;99.90;;;;;;5079716;28;20468;-80
2023/07/01 07:51:25;;;;;;;4.88;2.10;;;18.90;99.90;;;;;;5098169;28;20409;-79
2023/07/01 07:53:51;;;;;;;2.03;1.43;;;18.90;99.90;;;;;;5083432;28;20935;-79
2023/07/01 07:56:17;;;;;;;3.50;1.63;;;18.90;99.90;;;;;;5094506;28;21122;-82
2023/07/01 07:58:43;;;;;;;5.10;1.80;;;18.90;99.90;;;;;;5096435;28;20389;-82
2023/07/01 08:01:09;;;;;;;3.80;1.60;;;19.00;99.90;;;;;;5097942;28;20389;-81
2023/07/01 08:03:35;;;;;;;2.92;1.70;;;18.90;99.90;;;;;;5098120;28;20966;-80
2023/07/01 08:06:01;;;;;;;3.60;1.75;;;19.00;99.90;;;;;;5082142;28;20453;-80
2023/07/01 08:08:26;;;;;;;3.70;1.98;;;18.90;99.90;;;;;;5110821;28;20397;-80
2023/07/01 08:10:53;;;;;;;4.13;1.80;;;19.10;99.90;;;;;;5112295;28;20381;-80
2023/07/01 08:13:18;;;;;;;2.78;1.33;;;18.80;99.90;;;;;;5106078;28;20492;-78
2023/07/01 08:15:44;;;;;;;1.90;1.70;;;19.20;99.90;;;;;;5084517;28;20374;-80
2023/07/01 08:18:10;;;;;;;2.40;1.70;;;19.30;99.90;;;;;;5106182;22;20424;-83
2023/07/01 08:20:35;;;;;;;4.00;1.60;;;19.50;99.90;;;;;;5087072;28;20460;-80
2023/07/01 08:23:01;;;;;;;5.07;1.60;;;19.40;99.90;;;;;;5072947;28;20426;-79
2023/07/01 08:25:27;;;;;;;2.97;1.63;;;19.40;99.90;;;;;;5077419;28;20454;-84
2023/07/01 08:27:55;;;;;;;1.87;1.40;;;19.60;99.90;;;;;;5090862;28;20374;-82
2023/07/01 08:30:22;;;;;;;2.60;1.55;;;19.60;99.90;;;;;;5082669;28;20480;-81
2023/07/01 08:32:48;;;;;;;2.72;1.55;;;20.40;99.90;;;;;;5102027;28;20394;-82
2023/07/01 08:35:13;;;;;;;4.90;1.60;;;19.50;99.90;;;;;;5102741;28;20485;-83
2023/07/01 08:37:39;;;;;;;3.97;1.70;;;19.50;99.90;;;;;;5080837;28;20401;-83
2023/07/01 08:40:08;;;;;;;8.50;1.90;;;19.60;99.90;;;;;;5086600;28;20389;-82
2023/07/01 08:42:48;;;;;;;4.23;1.43;;;19.70;99.90;;;;;;5105660;28;20374;-82
2023/07/01 08:45:14;;;;;;;2.22;1.52;;;19.70;99.90;;;;;;5085143;28;20380;-84
2023/07/01 08:47:40;;;;;;;4.57;1.70;;;19.70;99.90;;;;;;5082477;28;20441;-80
2023/07/01 08:50:07;;;;;;;2.00;1.50;;;19.80;99.90;;;;;;5081012;28;20390;-82
2023/07/01 08:52:40;;;;;;;2.47;1.60;;;19.80;99.90;;;;;;5065033;28;20383;-83
2023/07/01 08:55:08;;;;;;;1.80;1.40;;;19.70;99.90;;;;;;5065120;28;20405;-79
2023/07/01 08:57:34;;;;;;;2.70;1.55;;;19.90;99.90;;;;;;5083728;28;20393;-80
2023/07/01 09:00:00;;;;;;;2.50;1.60;;;19.90;99.90;;;;;;5097895;28;20778;-83
2023/07/01 09:02:26;;;;;;;2.87;1.70;;;19.70;99.90;;;;;;5102326;28;20398;-83
2023/07/01 09:04:51;;;;;;;3.97;1.60;;;19.90;99.90;;;;;;5087319;28;20499;-81
2023/07/01 09:07:17;;;;;;;2.47;1.80;;;20.10;99.90;;;;;;5100462;28;20390;-81
2023/07/01 09:09:44;;;;;;;3.73;1.50;;;20.10;99.90;;;;;;5101390;28;20401;-82
2023/07/01 09:12:10;;;;;;;2.33;1.42;;;20.00;99.90;;;;;;5070626;28;20475;-83
2023/07/01 09:15:00;;;;;;;2.43;1.90;;;20.10;99.90;;;;;;5070129;28;20522;-83
2023/07/01 09:17:27;;;;;;;4.18;1.83;;;20.20;99.90;;;;;;5099289;28;20451;-80
2023/07/01 09:19:52;;;;;;;2.17;1.67;;;20.20;99.90;;;;;;5101618;28;20434;-82
2023/07/01 09:22:18;;;;;;;4.60;2.00;;;20.50;99.90;;;;;;5082775;28;20416;-82
2023/07/01 09:24:43;;;;;;;2.80;1.60;;;20.50;99.90;;;;;;5074042;28;20387;-80
2023/07/01 09:27:09;;;;;;;3.30;2.00;;;20.50;99.90;;;;;;5080466;28;20863;-81
2023/07/01 09:29:40;;;;;;;2.08;1.60;;;20.60;99.90;;;;;;5083148;28;20401;-81
2023/07/01 09:32:06;;;;;;;1.77;1.50;;;20.60;99.90;;;;;;5099253;28;20449;-80
2023/07/01 09:34:52;;;;;;;4.07;1.67;;;20.60;99.90;;;;;;5101663;28;20745;-81
2023/07/01 09:37:18;;;;;;;2.03;1.60;;;20.70;99.90;;;;;;5082656;28;20760;-80
2023/07/01 09:39:43;;;;;;;3.70;2.40;;;20.80;99.90;;;;;;5098120;28;20418;-79
2023/07/01 09:42:09;;;;;;;2.43;1.57;;;20.70;99.90;;;;;;5082918;28;20404;-81
2023/07/01 09:44:35;;;;;;;2.15;1.80;;;20.70;99.90;;;;;;5063244;28;20395;-80
2023/07/01 09:47:01;;;;;;;3.78;1.70;;;20.80;99.90;;;;;;5079303;28;20398;-82
2023/07/01 09:49:44;;;;;;;3.60;1.80;;;20.70;99.90;;;;;;5085744;28;20414;-80
2023/07/01 09:52:09;;;;;;;2.35;1.70;;;20.60;99.90;;;;;;5087084;28;20397;-81
2023/07/01 09:54:38;;;;;;;1.88;1.65;;;20.50;99.90;;;;;;5102995;28;20434;-80
2023/07/01 09:57:04;;;;;;;3.17;1.70;;;20.50;99.90;;;;;;5086065;28;20534;-80
2023/07/01 09:59:30;;;;;;;3.20;1.60;;;20.70;99.90;;;;;;5103876;28;20381;-81
2023/07/01 10:01:57;;;;;;;5.75;2.10;;;20.80;99.90;;;;;;5095689;28;20387;-83
2023/07/01 10:04:25;;;;;;;2.60;1.70;;;21.00;99.90;;;;;;5083072;28;20911;-80
2023/07/01 10:06:53;;;;;;;4.30;1.77;;;21.00;99.90;;;;;;5068774;28;20438;-81
2023/07/01 10:09:18;;;;;;;2.00;1.80;;;21.20;99.90;;;;;;5070192;28;20422;-83
2023/07/01 10:11:44;;;;;;;3.17;1.90;;;21.20;99.90;;;;;;5091207;28;20868;-81
2023/07/01 10:14:10;;;;;;;4.00;2.10;;;21.10;99.90;;;;;;5086010;28;20419;-80
2023/07/01 10:16:49;;;;;;;1.98;1.77;;;20.90;99.90;;;;;;5091994;28;20392;-80
2023/07/01 10:19:35;;;;;;;2.17;1.80;;;20.70;99.90;;;;;;5083171;28;20399;-81
2023/07/01 10:22:24;;;;;;;2.78;1.90;;;22.50;99.90;;;;;;5083230;28;20396;-82
2023/07/01 10:25:03;;;;;;;3.30;1.70;;;20.60;99.90;;;;;;5088233;28;20403;-83
2023/07/01 10:27:40;;;;;;;3.40;1.70;;;20.60;99.90;;;;;;5092374;28;20426;-81
2023/07/01 10:30:07;;;;;;;3.10;2.00;;;20.60;99.90;;;;;;5075188;28;20406;-81
2023/07/01 10:32:33;;;;;;;2.28;1.90;;;20.60;99.90;;;;;;5076509;28;20397;-81
2023/07/01 10:34:59;;;;;;;3.30;1.90;;;20.60;99.90;;;;;;5066713;28;20408;-81
2023/07/01 10:37:26;;;;;;;3.17;2.17;;;20.80;99.90;;;;;;5076119;28;20871;-81
2023/07/01 10:39:53;;;;;;;3.05;1.92;;;20.90;99.90;;;;;;5084452;28;20375;-80
2023/07/01 10:42:32;;;;;;;4.33;2.20;;;21.00;99.90;;;;;;5077294;28;20454;-80
2023/07/01 10:45:10;;;;;;;3.60;2.10;;;21.10;99.90;;;;;;5067359;28;20987;-80
2023/07/01 10:47:35;;;;;;;2.97;1.80;;;21.00;99.90;;;;;;5096701;28;20466;-80
2023/07/01 10:50:06;;;;;;;3.73;2.03;;;21.00;99.90;;;;;;5098806;28;20401;-81
2023/07/01 10:52:32;;;;;;;4.90;2.30;;;20.90;99.90;;;;;;5099344;28;20382;-81
2023/07/01 10:55:02;;;;;;;3.28;2.10;;;20.90;99.90;;;;;;5082203;28;20978;-83
2023/07/01 10:57:28;;;;;;;3.10;2.40;;;20.70;99.90;;;;;;5087202;28;20403;-81
2023/07/01 11:00:34;;;;;;;3.38;2.40;;;20.50;99.90;;;;;;5093912;28;20401;-81
2023/07/01 11:03:00;;;;;;;3.00;2.10;;;20.60;99.90;;;;;;5095728;28;20416;-81
2023/07/01 11:05:28;;;;;;;2.80;1.90;;;20.80;99.90;;;;;;5097255;28;20461;-82
2023/07/01 11:08:05;;;;;;;4.30;2.00;;;20.60;99.90;;;;;;5098797;28;20451;-80
2023/07/01 11:10:31;;;;;;;3.05;1.73;;;20.70;99.90;;;;;;5101216;28;20386;-79
2023/07/01 11:13:02;;;;;;;2.75;1.85;;;20.80;99.90;;;;;;5085841;28;21368;-80
2023/07/01 11:15:27;;;;;;;3.00;2.20;;;20.90;99.90;;;;;;5074437;28;20402;-81
2023/07/01 11:17:54;;;;;;;2.10;1.83;;;20.90;99.90;;;;;;5091527;28;20453;-80
2023/07/01 11:20:20;;;;;;;4.50;2.25;;;21.00;99.90;;;;;;5077279;28;20461;-80
2023/07/01 11:22:45;;;;;;;3.20;2.22;;;20.90;99.90;;;;;;5097357;28;20926;-80
2023/07/01 11:25:11;;;;;;;3.00;2.00;;;20.80;99.90;;;;;;5096242;28;20398;-80
2023/07/01 11:27:43;;;;;;;3.50;2.10;;;21.10;99.90;;;;;;5076813;28;20407;-80
2023/07/01 11:30:09;;;;;;;2.20;2.00;;;20.90;99.90;;;;;;5084088;28;20756;-80
2023/07/01 11:32:34;;;;;;;3.13;2.15;;;20.90;99.90;;;;;;5077342;28;20379;-80
2023/07/01 11:35:00;;;;;;;4.00;2.23;;;20.90;99.90;;;;;;5078053;28;20391;-81
2023/07/01 11:37:28;;;;;;;2.70;2.10;;;20.90;99.90;;;;;;5085166;28;20448;-80
2023/07/01 11:39:53;;;;;;;4.45;1.90;;;20.80;99.90;;;;;;5059694;28;20399;-81
2023/07/01 11:42:19;;;;;;;2.00;1.80;;;20.70;99.90;;;;;;5077222;28;20372;-79
2023/07/01 11:44:45;;;;;;;4.00;1.90;;;20.80;99.90;;;;;;5076063;28;20467;-81
2023/07/01 11:47:12;;;;;;;4.30;1.92;;;20.70;99.90;;;;;;5061582;28;20441;-81
2023/07/01 11:49:39;;;;;;;2.30;2.10;;;20.60;99.90;;;;;;5077470;28;20417;-80
2023/07/01 11:52:06;;;;;;;3.22;2.20;;;20.70;99.90;;;;;;5061377;28;20392;-80
2023/07/01 11:54:45;;;;;;;3.10;2.00;;;20.90;99.90;;;;;;5055666;28;20415;-80
2023/07/01 11:57:16;;;;;;;3.13;2.22;;;21.00;99.90;;;;;;5055784;28;20486;-80
2023/07/01 11:59:47;;;;;;;4.70;2.20;;;21.10;99.90;;;;;;5092352;28;20378;-81
2023/07/01 12:02:13;;;;;;;4.20;2.00;;;21.20;99.90;;;;;;5055963;28;20929;-81
2023/07/01 12:04:38;;;;;;;2.20;2.00;;;21.40;99.90;;;;;;5085514;28;20386;-80
2023/07/01 12:07:12;;;;;;;7.60;2.30;;;21.50;99.90;;;;;;5057202;28;20390;-82
2023/07/01 12:09:44;;;;;;;4.70;2.20;;;21.50;99.90;;;;;;5089129;28;20407;-80
2023/07/01 12:12:11;;;;;;;2.60;2.00;;;21.60;99.90;;;;;;5084263;28;20398;-81
2023/07/01 12:14:38;;;;;;;2.05;1.80;;;21.60;99.90;;;;;;5095975;28;20814;-81
2023/07/01 12:17:04;;;;;;;2.90;2.00;;;21.60;99.90;;;;;;5062087;28;20472;-80
2023/07/01 12:19:30;;;;;;;3.03;1.80;;;21.50;99.90;;;;;;5083353;28;20395;-80
2023/07/01 12:21:58;;;;;;;2.80;1.80;;;21.30;99.90;;;;;;5083586;28;20537;-81
2023/07/01 12:24:27;;;;;;;5.10;1.83;;;21.40;99.90;;;;;;5087869;28;20445;-80
2023/07/01 12:26:55;;;;;;;3.20;2.00;;;21.30;99.90;;;;;;5082293;28;20393;-80
2023/07/01 12:29:22;;;;;;;2.43;2.23;;;21.30;99.90;;;;;;5080173;28;20391;-80
2023/07/01 12:31:48;;;;;;;2.90;1.90;;;21.30;99.90;;;;;;5084282;28;20405;-80
2023/07/01 12:34:14;;;;;;;2.50;1.70;;;21.30;99.90;;;;;;5089171;28;20498;-81
2023/07/01 12:36:45;;;;;;;3.75;2.22;;;21.50;99.90;;;;;;5081788;28;20922;-81
2023/07/01 12:39:12;;;;;;;4.53;1.80;;;21.50;99.90;;;;;;5080883;28;20404;-80
2023/07/01 12:41:38;;;;;;;3.10;1.67;;;21.40;99.90;;;;;;5088183;28;20473;-81
2023/07/01 12:44:30;;;;;;;2.20;1.90;;;21.50;99.90;;;;;;5077707;28;20908;-82
2023/07/01 12:46:56;;;;;;;2.78;1.85;;;21.30;99.90;;;;;;5069381;28;20901;-79
2023/07/01 12:49:21;;;;;;;2.90;2.20;;;21.10;99.90;;;;;;5082792;28;20469;-82